createdAt,value
2023-04-28T00:01:25.610Z,23.87
2023-04-28T00:03:57.044Z,20.83
2023-04-28T00:06:31.083Z,21.90
2023-04-28T00:09:00.950Z,20.00
2023-04-28T00:11:30.798Z,19.55
2023-04-28T00:14:00.573Z,23.10
2023-04-28T00:16:30.249Z,23.95
2023-04-28T00:18:59.912Z,22.65
2023-04-28T00:21:32.246Z,22.73
2023-04-28T00:24:01.987Z,24.10
2023-04-28T00:26:31.668Z,23.65
2023-04-28T00:29:01.441Z,22.20
2023-04-28T00:31:31.230Z,24.08
2023-04-28T00:34:01.500Z,27.77
2023-04-28T00:36:33.829Z,23.02
2023-04-28T00:39:03.560Z,22.70
2023-04-28T00:41:33.324Z,20.53
2023-04-28T00:44:02.949Z,24.90
2023-04-28T00:46:33.967Z,26.80
2023-04-28T00:49:03.720Z,22.45
2023-04-28T00:51:36.667Z,22.45
2023-04-28T00:54:07.144Z,22.13
2023-04-28T00:56:37.068Z,24.42
2023-04-28T00:59:06.814Z,20.10
2023-04-28T01:01:36.794Z,23.20
2023-04-28T01:04:06.921Z,22.33
2023-04-28T01:06:41.532Z,25.63
2023-04-28T01:09:12.163Z,24.40
2023-04-28T01:11:41.875Z,23.38
2023-04-28T01:14:14.079Z,24.50
2023-04-28T01:16:45.027Z,22.08
2023-04-28T01:19:20.143Z,25.10
2023-04-28T01:21:52.602Z,27.93
2023-04-28T01:24:26.575Z,26.23
2023-04-28T01:27:00.875Z,25.08
2023-04-28T01:29:31.313Z,25.60
2023-04-28T01:32:01.317Z,33.88
2023-04-28T01:34:31.134Z,26.38
2023-04-28T01:37:00.786Z,28.27
2023-04-28T01:39:33.125Z,27.40
2023-04-28T01:42:02.863Z,29.73
2023-04-28T01:44:32.500Z,30.50
2023-04-28T01:47:02.286Z,28.27
2023-04-28T01:49:32.350Z,35.75
2023-04-28T01:52:02.393Z,26.70
2023-04-28T01:54:35.542Z,26.40
2023-04-28T01:57:06.182Z,29.88
2023-04-28T01:59:36.368Z,28.50
2023-04-28T02:02:08.751Z,31.17
2023-04-28T02:04:38.640Z,24.20
2023-04-28T02:07:08.706Z,29.13
2023-04-28T02:09:41.025Z,29.33
2023-04-28T02:12:11.122Z,31.75
2023-04-28T02:14:40.768Z,28.73
2023-04-28T02:17:10.472Z,30.70
2023-04-28T02:19:40.493Z,30.05
2023-04-28T02:22:10.229Z,29.60
2023-04-28T02:24:42.476Z,32.55
2023-04-28T02:27:12.688Z,28.37
2023-04-28T02:29:42.355Z,30.27
2023-04-28T02:32:12.064Z,29.27
2023-04-28T02:34:41.802Z,33.13
2023-04-28T02:37:11.485Z,32.33
2023-04-28T02:39:47.230Z,26.83
2023-04-28T02:42:18.505Z,34.05
2023-04-28T02:44:48.432Z,30.70
2023-04-28T02:47:18.214Z,35.05
2023-04-28T02:49:48.384Z,37.25
2023-04-28T02:52:18.698Z,32.03
2023-04-28T02:54:54.661Z,31.38
2023-04-28T02:57:24.377Z,35.75
2023-04-28T02:59:54.366Z,36.97
2023-04-28T03:02:24.572Z,33.07
2023-04-28T03:04:54.327Z,32.63
2023-04-28T03:07:24.061Z,34.38
2023-04-28T03:09:56.454Z,34.88
2023-04-28T03:12:26.144Z,36.70
2023-04-28T03:14:56.073Z,36.22
2023-04-28T03:17:26.162Z,32.67
2023-04-28T03:19:56.125Z,33.03
2023-04-28T03:22:26.034Z,34.17
2023-04-28T03:24:58.412Z,33.40
2023-04-28T03:27:30.257Z,34.25
2023-04-28T03:30:00.682Z,32.22
2023-04-28T03:32:30.565Z,32.85
2023-04-28T03:35:00.439Z,31.83
2023-04-28T03:37:30.200Z,31.42
2023-04-28T03:40:03.369Z,24.80
2023-04-28T03:42:41.196Z,22.30
2023-04-28T03:45:13.781Z,19.13
2023-04-28T03:47:43.594Z,22.20
2023-04-28T03:50:13.850Z,26.27
2023-04-28T03:52:43.507Z,25.33
2023-04-28T03:55:16.413Z,24.70
2023-04-28T03:57:46.231Z,22.08
2023-04-28T04:00:16.935Z,26.63
2023-04-28T04:02:48.748Z,26.48
2023-04-28T04:05:19.569Z,23.85
2023-04-28T04:07:49.422Z,22.98
2023-04-28T04:10:21.919Z,23.70
2023-04-28T04:12:52.622Z,18.08
2023-04-28T04:15:23.258Z,21.83
2023-04-28T04:17:53.042Z,22.45
2023-04-28T04:20:24.776Z,21.40
2023-04-28T04:22:54.605Z,21.67
2023-04-28T04:25:27.183Z,22.67
2023-04-28T04:27:58.059Z,20.27
2023-04-28T04:30:28.024Z,21.80
2023-04-28T04:32:57.837Z,25.10
2023-04-28T04:35:27.811Z,22.02
2023-04-28T04:37:57.745Z,21.23
2023-04-28T04:40:30.287Z,23.03
2023-04-28T04:43:00.134Z,27.70
2023-04-28T04:45:31.269Z,20.65
2023-04-28T04:48:01.148Z,22.75
2023-04-28T04:50:30.888Z,22.45
2023-04-28T04:53:01.141Z,22.23
2023-04-28T04:55:33.728Z,21.35
2023-04-28T04:58:04.064Z,24.45
2023-04-28T05:00:34.019Z,19.45
2023-04-28T05:03:04.376Z,21.08
2023-04-28T05:05:34.825Z,19.50
2023-04-28T05:08:24.920Z,22.77
2023-04-28T05:10:57.848Z,26.20
2023-04-28T05:13:27.895Z,19.58
2023-04-28T05:16:03.065Z,17.15
2023-04-28T05:18:48.560Z,28.50
2023-04-28T05:21:18.867Z,20.05
2023-04-28T05:23:48.692Z,21.60
2023-04-28T05:26:21.070Z,24.05
2023-04-28T05:28:51.511Z,23.92
2023-04-28T05:31:21.322Z,22.63
2023-04-28T05:33:51.888Z,20.13
2023-04-28T05:36:21.790Z,21.23
2023-04-28T05:38:51.974Z,24.92
2023-04-28T05:41:24.963Z,24.00
2023-04-28T05:43:54.759Z,20.98
2023-04-28T05:46:30.693Z,22.90
2023-04-28T05:49:02.688Z,22.23
2023-04-28T05:51:41.608Z,21.52
2023-04-28T05:54:11.536Z,25.95
2023-04-28T05:56:49.318Z,23.08
2023-04-28T05:59:19.639Z,21.85
2023-04-28T06:01:50.869Z,21.83
2023-04-28T06:04:21.083Z,22.80
2023-04-28T06:06:52.242Z,23.17
2023-04-28T06:09:22.187Z,20.10
2023-04-28T06:11:54.608Z,21.08
2023-04-28T06:14:25.975Z,21.38
2023-04-28T06:16:55.718Z,19.98
2023-04-28T06:19:25.538Z,20.23
2023-04-28T06:21:55.277Z,20.23
2023-04-28T06:24:24.949Z,18.63
2023-04-28T06:27:00.779Z,18.33
2023-04-28T06:29:31.035Z,20.73
2023-04-28T06:32:00.793Z,15.38
2023-04-28T06:34:31.229Z,20.55
2023-04-28T06:37:01.688Z,20.60
2023-04-28T06:39:31.673Z,19.38
2023-04-28T06:42:04.522Z,21.25
2023-04-28T06:44:38.118Z,17.88
2023-04-28T06:47:08.028Z,17.50
2023-04-28T06:49:44.033Z,21.20
2023-04-28T06:52:14.444Z,17.15
2023-04-28T06:54:44.325Z,17.95
2023-04-28T06:57:16.668Z,18.00
2023-04-28T06:59:46.703Z,17.35
2023-04-28T07:02:16.550Z,16.83
2023-04-28T07:04:46.333Z,18.88
2023-04-28T07:07:16.991Z,17.83
2023-04-28T07:09:46.914Z,17.35
2023-04-28T07:12:19.216Z,18.08
2023-04-28T07:14:48.957Z,16.15
2023-04-28T07:17:18.674Z,14.63
2023-04-28T07:19:50.095Z,18.27
2023-04-28T07:22:20.210Z,16.85
2023-04-28T07:24:49.924Z,16.63
2023-04-28T07:27:22.209Z,17.90
2023-04-28T07:29:51.986Z,15.38
2023-04-28T07:32:21.752Z,19.65
2023-04-28T07:34:51.489Z,16.83
2023-04-28T07:37:21.644Z,16.08
2023-04-28T07:39:51.292Z,21.70
2023-04-28T07:42:23.551Z,16.08
2023-04-28T07:44:53.266Z,15.30
2023-04-28T07:47:23.264Z,19.60
2023-04-28T07:49:52.931Z,14.43
2023-04-28T07:52:22.627Z,14.20
2023-04-28T07:54:52.295Z,14.50
2023-04-28T07:57:24.797Z,12.68
2023-04-28T07:59:54.582Z,14.65
2023-04-28T08:02:24.338Z,15.10
2023-04-28T08:04:54.376Z,15.07
2023-04-28T08:07:24.843Z,14.67
2023-04-28T08:09:55.344Z,13.73
2023-04-28T08:12:27.713Z,13.55
2023-04-28T08:14:57.525Z,13.45
2023-04-28T08:17:27.276Z,13.47
2023-04-28T08:19:57.067Z,13.90
2023-04-28T08:22:26.776Z,14.27
2023-04-28T08:24:56.491Z,14.07
2023-04-28T08:27:28.989Z,17.73
2023-04-28T08:29:58.774Z,12.63
2023-04-28T08:32:28.788Z,12.90
2023-04-28T08:34:58.686Z,15.45
2023-04-28T08:37:29.476Z,16.03
2023-04-28T08:40:03.394Z,13.30
2023-04-28T08:42:37.659Z,13.77
2023-04-28T08:45:08.823Z,14.60
2023-04-28T08:47:40.741Z,17.30
2023-04-28T08:50:12.621Z,16.13
2023-04-28T08:52:43.149Z,16.73
2023-04-28T08:55:14.590Z,16.20
2023-04-28T08:57:49.059Z,16.25
2023-04-28T09:00:19.249Z,15.60
2023-04-28T09:02:49.051Z,17.65
2023-04-28T09:05:19.092Z,15.20
2023-04-28T09:07:52.188Z,16.15
2023-04-28T09:10:23.561Z,17.90
2023-04-28T09:12:58.705Z,17.63
2023-04-28T09:15:32.672Z,14.48
2023-04-28T09:18:04.105Z,14.88
2023-04-28T09:20:35.106Z,16.98
2023-04-28T09:23:18.486Z,13.80
2023-04-28T09:26:04.824Z,15.20
2023-04-28T09:28:38.031Z,17.35
2023-04-28T09:31:07.940Z,13.98
2023-04-28T09:33:37.650Z,15.47
2023-04-28T09:36:08.177Z,14.60
2023-04-28T09:38:46.645Z,14.40
2023-04-28T09:41:16.581Z,15.98
2023-04-28T09:43:49.096Z,15.05
2023-04-28T09:46:31.908Z,14.60
2023-04-28T09:49:04.624Z,20.00
2023-04-28T09:51:34.747Z,21.17
2023-04-28T09:54:05.736Z,17.80
2023-04-28T09:56:40.919Z,19.23
2023-04-28T09:59:13.485Z,18.27
2023-04-28T10:01:44.041Z,20.08
2023-04-28T10:04:14.793Z,19.73
2023-04-28T10:06:44.848Z,23.48
2023-04-28T10:09:15.008Z,17.88
2023-04-28T10:11:45.007Z,20.60
2023-04-28T10:14:17.365Z,21.65
2023-04-28T10:16:47.653Z,18.92
2023-04-28T10:19:17.321Z,22.40
2023-04-28T10:21:54.782Z,21.27
2023-04-28T10:24:29.833Z,17.40
2023-04-28T10:27:07.762Z,17.38
2023-04-28T10:29:40.446Z,21.27
2023-04-28T10:32:21.157Z,17.77
2023-04-28T10:34:51.477Z,19.70
2023-04-28T10:37:21.257Z,18.08
2023-04-28T10:40:21.005Z,16.20
2023-04-28T10:42:57.873Z,21.38
2023-04-28T10:46:12.505Z,16.23
2023-04-28T10:49:08.676Z,18.92
2023-04-28T10:51:38.515Z,17.40
2023-04-28T10:54:19.657Z,21.83
2023-04-28T10:57:23.017Z,19.02
2023-04-28T10:59:53.359Z,20.38
2023-04-28T11:02:46.323Z,18.30
2023-04-28T11:05:20.608Z,19.27
2023-04-28T11:08:35.459Z,22.85
2023-04-28T11:11:21.251Z,21.42
2023-04-28T11:13:51.917Z,22.63
2023-04-28T11:16:23.721Z,25.00
2023-04-28T11:19:07.299Z,26.58
2023-04-28T11:21:39.676Z,28.37
2023-04-28T11:24:13.195Z,27.08
2023-04-28T11:26:43.949Z,22.92
2023-04-28T11:29:15.135Z,22.08
2023-04-28T11:31:52.266Z,24.80
2023-04-28T11:34:23.401Z,22.25
2023-04-28T11:36:56.139Z,22.83
2023-04-28T11:39:31.493Z,21.40
2023-04-28T11:42:02.478Z,22.27
2023-04-28T11:44:33.527Z,25.10
2023-04-28T11:47:05.219Z,23.38
2023-04-28T11:49:44.612Z,24.43
2023-04-28T11:52:17.000Z,22.10
2023-04-28T11:54:46.816Z,22.55
2023-04-28T11:57:23.456Z,23.33
2023-04-28T11:59:53.832Z,21.50
2023-04-28T12:02:31.019Z,21.38
2023-04-28T12:05:09.240Z,21.00
2023-04-28T12:07:46.811Z,19.15
2023-04-28T12:10:18.967Z,22.17
2023-04-28T12:12:52.360Z,19.25
2023-04-28T12:15:24.938Z,17.35
2023-04-28T12:17:54.809Z,19.37
2023-04-28T12:20:38.092Z,19.65
2023-04-28T12:23:11.327Z,18.45
2023-04-28T12:25:48.216Z,17.95
2023-04-28T12:28:18.059Z,18.70
2023-04-28T12:30:47.865Z,17.05
2023-04-28T12:33:27.484Z,15.97
2023-04-28T12:35:57.849Z,14.98
2023-04-28T12:38:30.329Z,17.70
2023-04-28T12:41:00.563Z,13.52
2023-04-28T12:43:30.409Z,17.75
2023-04-28T12:46:00.730Z,16.35
2023-04-28T12:48:31.983Z,19.55
2023-04-28T12:51:01.705Z,19.70
2023-04-28T12:53:34.139Z,25.48
2023-04-28T12:56:03.860Z,22.77
2023-04-28T12:58:33.746Z,21.77
2023-04-28T13:01:03.422Z,24.80
2023-04-28T13:03:33.192Z,25.65
2023-04-28T13:06:02.964Z,25.38
2023-04-28T13:08:35.418Z,24.73
2023-04-28T13:11:16.171Z,25.85
2023-04-28T13:13:52.980Z,28.88
2023-04-28T13:16:25.207Z,34.40
2023-04-28T13:18:54.970Z,35.17
2023-04-28T13:21:24.729Z,32.47
2023-04-28T13:23:57.458Z,36.38
2023-04-28T13:26:27.314Z,37.53
2023-04-28T13:28:57.161Z,36.43
2023-04-28T13:31:26.932Z,39.80
2023-04-28T13:33:56.685Z,31.63
2023-04-28T13:36:26.990Z,32.40
2023-04-28T13:39:01.584Z,34.10
2023-04-28T13:41:32.138Z,33.10
2023-04-28T13:44:01.878Z,28.60
2023-04-28T13:46:31.675Z,31.47
2023-04-28T13:49:01.853Z,27.92
2023-04-28T13:51:33.081Z,26.92
2023-04-28T13:54:08.374Z,30.00
2023-04-28T13:56:38.838Z,27.05
2023-04-28T13:59:08.502Z,25.77
2023-04-28T14:01:38.264Z,18.40
2023-04-28T14:04:08.150Z,20.85
2023-04-28T14:06:38.349Z,19.42
2023-04-28T14:09:10.715Z,17.58
2023-04-28T14:11:40.569Z,18.17
2023-04-28T14:14:10.344Z,16.05
2023-04-28T14:16:40.095Z,15.82
2023-04-28T14:19:10.144Z,15.30
2023-04-28T14:21:40.054Z,13.13
2023-04-28T14:24:13.109Z,14.02
2023-04-28T14:26:44.078Z,12.20
2023-04-28T14:29:13.921Z,12.80
2023-04-28T14:31:43.636Z,14.67
2023-04-28T14:34:13.669Z,16.55
2023-04-28T14:36:43.346Z,13.63
2023-04-28T14:39:16.138Z,15.05
2023-04-28T14:41:46.076Z,12.93
2023-04-28T14:44:16.147Z,12.90
2023-04-28T14:46:46.063Z,14.88
2023-04-28T14:49:15.781Z,12.25
2023-04-28T14:51:46.186Z,12.93
2023-04-28T14:54:18.552Z,13.15
2023-04-28T14:56:48.414Z,11.65
2023-04-28T14:59:19.008Z,10.40
2023-04-28T15:01:50.669Z,8.77
2023-04-28T15:04:20.843Z,8.98
2023-04-28T15:06:50.791Z,7.75
2023-04-28T15:09:23.564Z,8.63
2023-04-28T15:11:54.180Z,12.07
2023-04-28T15:14:23.864Z,7.43
2023-04-28T15:16:53.568Z,7.70
2023-04-28T15:19:23.597Z,7.63
2023-04-28T15:21:53.745Z,7.13
2023-04-28T15:24:26.246Z,5.78
2023-04-28T15:26:56.676Z,5.05
2023-04-28T15:29:26.389Z,7.38
2023-04-28T15:31:56.864Z,6.10
2023-04-28T15:34:26.793Z,4.50
2023-04-28T15:36:56.783Z,6.53
2023-04-28T15:39:29.182Z,9.20
2023-04-28T15:41:59.680Z,6.35
2023-04-28T15:44:30.729Z,5.85
2023-04-28T15:47:00.735Z,7.00
2023-04-28T15:49:30.442Z,6.20
2023-04-28T15:52:00.296Z,8.07
2023-04-28T15:54:34.048Z,9.52
2023-04-28T15:57:03.755Z,10.80
2023-04-28T15:59:33.718Z,11.98
2023-04-28T16:02:03.657Z,12.07
2023-04-28T16:04:33.594Z,14.30
2023-04-28T16:07:04.511Z,14.98
2023-04-28T16:09:36.951Z,14.20
2023-04-28T16:12:07.643Z,14.02
2023-04-28T16:14:37.682Z,13.38
2023-04-28T16:17:07.856Z,12.07
2023-04-28T16:19:38.234Z,12.68
2023-04-28T16:22:08.020Z,11.73
2023-04-28T16:24:42.739Z,11.70
2023-04-28T16:27:12.877Z,11.45
2023-04-28T16:29:42.731Z,9.57
2023-04-28T16:32:12.542Z,7.05
2023-04-28T16:34:42.341Z,6.53
2023-04-28T16:37:12.053Z,7.15
2023-04-28T16:39:44.317Z,7.00
2023-04-28T16:42:14.015Z,7.70
2023-04-28T16:44:44.168Z,6.53
2023-04-28T16:47:14.367Z,7.32
2023-04-28T16:49:44.138Z,8.53
2023-04-28T16:52:13.838Z,6.47
2023-04-28T16:54:46.231Z,8.02
2023-04-28T16:57:15.983Z,7.35
2023-04-28T16:59:45.870Z,6.75
2023-04-28T17:02:15.551Z,8.40
2023-04-28T17:04:45.424Z,7.75
2023-04-28T17:07:15.121Z,6.78
2023-04-28T17:09:47.422Z,7.73
2023-04-28T17:12:17.886Z,7.13
2023-04-28T17:14:47.547Z,9.77
2023-04-28T17:17:17.943Z,8.05
2023-04-28T17:19:47.691Z,8.50
2023-04-28T17:22:17.719Z,8.57
2023-04-28T17:24:49.966Z,9.18
2023-04-28T17:27:19.725Z,12.65
2023-04-28T17:29:49.591Z,10.90
2023-04-28T17:32:19.414Z,9.40
2023-04-28T17:34:49.074Z,10.23
2023-04-28T17:37:18.810Z,10.38
2023-04-28T17:39:52.410Z,10.38
2023-04-28T17:42:22.386Z,10.80
2023-04-28T17:44:52.197Z,12.50
2023-04-28T17:47:22.324Z,12.18
2023-04-28T17:49:52.388Z,11.37
2023-04-28T17:52:22.630Z,13.55
2023-04-28T17:54:54.987Z,16.25
2023-04-28T17:57:24.681Z,14.27
2023-04-28T17:59:54.466Z,16.60
2023-04-28T18:02:24.170Z,14.82
2023-04-28T18:04:54.047Z,14.53
2023-04-28T18:07:23.888Z,16.45
2023-04-28T18:09:57.425Z,13.02
2023-04-28T18:12:27.543Z,14.73
2023-04-28T18:14:57.961Z,16.35
2023-04-28T18:17:27.781Z,14.77
2023-04-28T18:19:57.914Z,13.30
2023-04-28T18:22:28.102Z,14.80
2023-04-28T18:25:00.599Z,13.70
2023-04-28T18:27:30.377Z,15.85
2023-04-28T18:30:00.042Z,18.70
2023-04-28T18:32:30.217Z,16.13
2023-04-28T18:35:00.766Z,18.40
2023-04-28T18:37:30.536Z,16.13
2023-04-28T18:40:02.903Z,16.13
2023-04-28T18:42:33.173Z,15.80
2023-04-28T18:45:04.539Z,16.30
2023-04-28T18:47:35.332Z,13.80
2023-04-28T18:50:05.555Z,13.48
2023-04-28T18:52:35.187Z,14.90
2023-04-28T18:55:08.754Z,14.82
2023-04-28T18:57:38.566Z,13.23
2023-04-28T19:00:09.823Z,15.05
2023-04-28T19:02:39.634Z,13.40
2023-04-28T19:05:10.548Z,14.18
2023-04-28T19:07:40.278Z,14.63
2023-04-28T19:10:13.739Z,14.13
2023-04-28T19:12:43.559Z,14.40
2023-04-28T19:15:13.866Z,13.93
2023-04-28T19:17:43.660Z,13.32
2023-04-28T19:20:13.955Z,14.60
2023-04-28T19:22:44.417Z,14.07
2023-04-28T19:25:16.780Z,13.60
2023-04-28T19:27:47.517Z,15.80
2023-04-28T19:30:17.976Z,15.38
2023-04-28T19:32:47.767Z,15.77
2023-04-28T19:35:17.489Z,16.25
2023-04-28T19:37:48.524Z,18.00
2023-04-28T19:40:20.886Z,14.93
2023-04-28T19:42:51.308Z,16.85
2023-04-28T19:45:21.026Z,15.77
2023-04-28T19:47:50.661Z,18.13
2023-04-28T19:50:21.291Z,23.27
2023-04-28T19:52:51.063Z,16.20
2023-04-28T19:55:24.668Z,15.47
2023-04-28T19:57:57.303Z,19.73
2023-04-28T20:00:28.334Z,17.45
2023-04-28T20:02:59.371Z,17.60
2023-04-28T20:05:29.148Z,18.48
2023-04-28T20:07:58.848Z,17.20
2023-04-28T20:10:31.308Z,18.10
2023-04-28T20:13:01.483Z,13.80
2023-04-28T20:15:31.160Z,17.53
2023-04-28T20:18:00.895Z,16.52
2023-04-28T20:20:30.652Z,15.10
2023-04-28T20:23:00.439Z,18.30
2023-04-28T20:25:32.836Z,17.63
2023-04-28T20:28:02.534Z,16.13
2023-04-28T20:30:32.190Z,17.45
2023-04-28T20:33:01.937Z,17.77
2023-04-28T20:35:31.662Z,17.80
2023-04-28T20:38:01.438Z,16.63
2023-04-28T20:40:34.839Z,19.38
2023-04-28T20:43:04.591Z,18.20
2023-04-28T20:45:34.644Z,19.95
2023-04-28T20:48:04.450Z,17.50
2023-04-28T20:50:36.415Z,21.38
2023-04-28T20:53:06.107Z,21.02
2023-04-28T20:55:38.536Z,24.17
2023-04-28T20:58:08.294Z,24.57
2023-04-28T21:00:41.199Z,25.40
2023-04-28T21:03:15.746Z,23.17
2023-04-28T21:05:46.673Z,25.92
2023-04-28T21:08:16.541Z,27.25
2023-04-28T21:10:48.820Z,31.10
2023-04-28T21:13:18.522Z,28.65
2023-04-28T21:15:48.326Z,32.97
2023-04-28T21:18:17.993Z,31.27
2023-04-28T21:20:48.036Z,32.50
2023-04-28T21:23:17.668Z,29.02
2023-04-28T21:25:49.926Z,33.47
2023-04-28T21:28:20.764Z,30.33
2023-04-28T21:30:50.623Z,31.83
2023-04-28T21:33:22.328Z,31.17
2023-04-28T21:35:52.158Z,36.72
2023-04-28T21:38:21.851Z,35.15
2023-04-28T21:40:54.449Z,30.27
2023-04-28T21:43:24.232Z,33.13
2023-04-28T21:45:54.724Z,37.03
2023-04-28T21:48:24.635Z,40.50
2023-04-28T21:50:54.312Z,39.25
2023-04-28T21:53:24.089Z,41.53
2023-04-28T21:55:56.594Z,42.70
2023-04-28T21:58:26.367Z,41.22
2023-04-28T22:00:56.090Z,41.35
2023-04-28T22:03:26.115Z,37.70
2023-04-28T22:05:56.006Z,36.10
2023-04-28T22:08:25.688Z,33.63
2023-04-28T22:10:57.957Z,32.92
2023-04-28T22:13:27.939Z,29.58
2023-04-28T22:15:59.267Z,30.00
2023-04-28T22:18:29.133Z,32.58
2023-04-28T22:20:58.823Z,31.85
2023-04-28T22:23:28.711Z,39.10
2023-04-28T22:26:02.934Z,37.42
2023-04-28T22:28:32.711Z,35.78
2023-04-28T22:31:02.393Z,33.70
2023-04-28T22:33:32.527Z,33.58
2023-04-28T22:36:02.369Z,34.83
2023-04-28T22:38:32.090Z,35.42
2023-04-28T22:41:05.617Z,31.63
2023-04-28T22:43:35.286Z,30.67
2023-04-28T22:46:05.218Z,31.47
2023-04-28T22:48:34.903Z,33.30
2023-04-28T22:51:04.588Z,31.30
2023-04-28T22:53:34.262Z,30.40
2023-04-28T22:56:06.750Z,31.75
2023-04-28T22:58:36.493Z,40.75
2023-04-28T23:01:06.678Z,49.50
2023-04-28T23:03:38.443Z,42.08
2023-04-28T23:06:08.488Z,42.67
2023-04-28T23:08:38.200Z,41.78
2023-04-28T23:11:10.959Z,42.13
2023-04-28T23:13:40.754Z,42.13
2023-04-28T23:16:11.090Z,48.05
2023-04-28T23:18:40.837Z,49.83
2023-04-28T23:21:11.406Z,50.55
2023-04-28T23:23:41.113Z,49.63
2023-04-28T23:26:13.444Z,61.20
2023-04-28T23:28:43.102Z,56.42
2023-04-28T23:31:13.384Z,56.03
2023-04-28T23:33:43.147Z,57.93
2023-04-28T23:36:12.775Z,65.10
2023-04-28T23:38:42.534Z,66.95
2023-04-28T23:41:15.001Z,64.07
2023-04-28T23:43:44.660Z,61.42
2023-04-28T23:46:14.462Z,65.50
2023-04-28T23:48:44.212Z,67.05
2023-04-28T23:51:13.949Z,69.25
2023-04-28T23:53:44.007Z,74.20
2023-04-28T23:56:16.654Z,72.07
2023-04-28T23:58:46.396Z,77.10
